createdAt,value
2019-05-11T00:00:46.981Z,64.07
2019-05-11T00:03:14.249Z,70.77
2019-05-11T00:05:41.599Z,81.60
2019-05-11T00:08:08.829Z,66.90
2019-05-11T00:10:36.141Z,72.57
2019-05-11T00:13:05.439Z,61.90
2019-05-11T00:15:32.921Z,55.13
2019-05-11T00:18:00.310Z,61.30
2019-05-11T00:20:27.736Z,57.67
2019-05-11T00:22:55.025Z,65.27
2019-05-11T00:25:22.489Z,75.43
2019-05-11T00:27:49.822Z,71.37
2019-05-11T00:30:17.220Z,74.00
2019-05-11T00:32:44.638Z,66.17
2019-05-11T00:35:11.979Z,43.50
2019-05-11T00:37:39.548Z,52.20
2019-05-11T00:40:14.288Z,53.13
2019-05-11T00:42:38.284Z,61.73
2019-05-11T00:45:06.412Z,63.33
2019-05-11T00:47:33.943Z,72.93
2019-05-11T00:50:01.343Z,65.93
2019-05-11T00:52:28.779Z,64.33
2019-05-11T00:54:57.120Z,66.00
2019-05-11T00:57:24.547Z,61.30
2019-05-11T00:59:52.113Z,53.20
2019-05-11T01:02:19.568Z,55.37
2019-05-11T01:04:47.086Z,52.17
2019-05-11T01:07:14.364Z,56.87
2019-05-11T01:09:41.842Z,57.23
2019-05-11T01:12:09.297Z,51.47
2019-05-11T01:14:36.679Z,47.57
2019-05-11T01:17:03.975Z,46.00
2019-05-11T01:19:31.387Z,55.13
2019-05-11T01:21:58.691Z,56.83
2019-05-11T01:24:25.994Z,55.73
2019-05-11T01:26:53.336Z,52.57
2019-05-11T01:29:20.631Z,52.37
2019-05-11T01:31:47.932Z,59.70
2019-05-11T01:34:15.194Z,59.27
2019-05-11T01:36:42.547Z,58.63
2019-05-11T01:39:09.962Z,53.73
2019-05-11T01:41:37.197Z,50.27
2019-05-11T01:44:04.460Z,45.17
2019-05-11T01:46:31.730Z,50.43
2019-05-11T01:48:58.985Z,59.63
2019-05-11T01:51:26.266Z,62.90
2019-05-11T01:53:55.928Z,66.67
2019-05-11T01:56:24.128Z,65.27
2019-05-11T01:58:51.595Z,66.83
2019-05-11T02:01:18.976Z,71.47
2019-05-11T02:03:46.612Z,69.00
2019-05-11T02:06:13.923Z,69.13
2019-05-11T02:08:41.188Z,77.50
2019-05-11T02:11:16.012Z,80.37
2019-05-11T02:13:37.671Z,81.10
2019-05-11T02:16:04.943Z,94.43
2019-05-11T02:18:32.187Z,92.37
2019-05-11T02:21:00.555Z,91.43
2019-05-11T02:23:27.806Z,80.87
2019-05-11T02:25:55.091Z,77.13
2019-05-11T02:28:22.487Z,71.37
2019-05-11T02:30:49.792Z,75.90
2019-05-11T02:33:17.094Z,77.47
2019-05-11T02:35:44.406Z,78.97
2019-05-11T02:38:11.678Z,77.53
2019-05-11T02:40:39.757Z,73.07
2019-05-11T02:43:07.039Z,58.67
2019-05-11T02:45:41.454Z,68.07
2019-05-11T02:48:09.281Z,64.40
2019-05-11T02:50:37.114Z,66.40
2019-05-11T02:53:04.461Z,62.70
2019-05-11T02:55:32.338Z,69.30
2019-05-11T02:58:00.736Z,62.90
2019-05-11T03:00:36.524Z,58.27
2019-05-11T03:03:03.786Z,60.03
2019-05-11T03:05:31.010Z,71.13
2019-05-11T03:07:58.346Z,65.00
2019-05-11T03:10:25.726Z,62.13
2019-05-11T03:12:53.021Z,52.60
2019-05-11T03:15:20.445Z,49.03
2019-05-11T03:17:47.719Z,55.57
2019-05-11T03:20:15.069Z,57.87
2019-05-11T03:22:42.378Z,54.37
2019-05-11T03:25:09.677Z,57.00
2019-05-11T03:27:36.912Z,62.07
2019-05-11T03:30:04.685Z,66.60
2019-05-11T03:32:32.140Z,67.57
2019-05-11T03:34:59.599Z,71.23
2019-05-11T03:37:27.005Z,78.00
2019-05-11T03:39:54.312Z,76.47
2019-05-11T03:42:21.594Z,70.33
2019-05-11T03:44:48.882Z,61.27
2019-05-11T03:47:16.179Z,58.80
2019-05-11T03:49:43.454Z,65.17
2019-05-11T03:52:10.858Z,67.37
2019-05-11T03:54:38.145Z,62.73
2019-05-11T03:57:05.433Z,60.90
2019-05-11T03:59:32.778Z,62.87
2019-05-11T04:02:00.089Z,64.77
2019-05-11T04:04:27.340Z,63.10
2019-05-11T04:06:54.617Z,63.63
2019-05-11T04:09:22.077Z,70.10
2019-05-11T04:11:49.387Z,56.40
2019-05-11T04:14:16.852Z,66.47
2019-05-11T04:16:44.138Z,70.20
2019-05-11T04:19:11.587Z,52.63
2019-05-11T04:21:38.880Z,52.07
2019-05-11T04:24:06.278Z,57.20
2019-05-11T04:26:33.691Z,56.07
2019-05-11T04:29:02.046Z,55.00
2019-05-11T04:31:29.310Z,63.00
2019-05-11T04:33:56.615Z,57.50
2019-05-11T04:36:23.901Z,60.80
2019-05-11T04:38:51.221Z,57.43
2019-05-11T04:41:18.522Z,52.93
2019-05-11T04:43:45.789Z,47.80
2019-05-11T04:46:13.147Z,52.50
2019-05-11T04:48:40.506Z,45.73
2019-05-11T04:51:07.781Z,48.63
2019-05-11T04:53:35.080Z,45.70
2019-05-11T04:56:03.337Z,51.83
2019-05-11T04:58:31.894Z,45.37
2019-05-11T05:00:59.979Z,48.33
2019-05-11T05:03:40.332Z,41.07
2019-05-11T05:05:58.203Z,39.73
2019-05-11T05:08:28.692Z,38.00
2019-05-11T05:10:58.515Z,33.33
2019-05-11T05:13:29.283Z,35.73
2019-05-11T05:15:54.615Z,35.93
2019-05-11T05:18:22.094Z,35.20
2019-05-11T05:20:49.442Z,33.47
2019-05-11T05:23:16.911Z,31.33
2019-05-11T05:25:44.193Z,33.93
2019-05-11T05:28:11.482Z,31.70
2019-05-11T05:30:38.881Z,29.27
2019-05-11T05:33:06.181Z,28.73
2019-05-11T05:35:33.516Z,25.80
2019-05-11T05:38:00.805Z,23.97
2019-05-11T05:40:28.103Z,28.10
2019-05-11T05:42:55.393Z,27.17
2019-05-11T05:45:22.691Z,25.33
2019-05-11T05:47:50.023Z,25.90
2019-05-11T05:50:17.437Z,24.27
2019-05-11T05:52:44.797Z,30.27
2019-05-11T05:55:12.194Z,24.90
2019-05-11T05:57:39.620Z,25.73
2019-05-11T06:00:07.092Z,23.23
2019-05-11T06:02:34.439Z,25.67
2019-05-11T06:05:05.137Z,25.03
2019-05-11T06:07:34.337Z,23.67
2019-05-11T06:10:01.690Z,25.50
2019-05-11T06:12:29.453Z,21.40
2019-05-11T06:14:57.863Z,21.37
2019-05-11T06:17:25.190Z,21.07
2019-05-11T06:19:52.970Z,23.87
2019-05-11T06:22:21.686Z,19.07
2019-05-11T06:24:49.030Z,23.37
2019-05-11T06:27:16.489Z,20.40
2019-05-11T06:29:43.709Z,20.03
2019-05-11T06:32:11.003Z,19.47
2019-05-11T06:34:38.211Z,21.37
2019-05-11T06:37:06.625Z,21.63
2019-05-11T06:39:33.888Z,20.90
2019-05-11T06:42:01.156Z,19.70
2019-05-11T06:44:28.433Z,19.27
2019-05-11T06:46:55.768Z,21.00
2019-05-11T06:49:23.087Z,21.87
2019-05-11T06:51:50.440Z,19.77
2019-05-11T06:54:17.759Z,22.37
2019-05-11T06:56:45.031Z,22.70
2019-05-11T06:59:12.316Z,21.97
2019-05-11T07:01:39.576Z,21.70
2019-05-11T07:04:06.876Z,21.27
2019-05-11T07:06:34.312Z,21.60
2019-05-11T07:09:01.612Z,21.23
2019-05-11T07:11:29.241Z,21.83
2019-05-11T07:13:56.589Z,21.60
2019-05-11T07:16:23.923Z,20.90
2019-05-11T07:18:51.181Z,22.60
2019-05-11T07:21:18.445Z,22.07
2019-05-11T07:23:45.804Z,20.73
2019-05-11T07:26:13.056Z,23.03
2019-05-11T07:28:40.367Z,21.23
2019-05-11T07:31:07.626Z,21.67
2019-05-11T07:33:34.957Z,23.90
2019-05-11T07:36:02.307Z,25.93
2019-05-11T07:38:29.619Z,22.20
2019-05-11T07:40:58.226Z,26.53
2019-05-11T07:43:25.729Z,28.90
2019-05-11T07:45:53.046Z,25.77
2019-05-11T07:48:20.625Z,25.80
2019-05-11T07:50:48.094Z,26.43
2019-05-11T07:53:15.426Z,24.30
2019-05-11T07:55:42.687Z,22.93
2019-05-11T07:58:09.995Z,24.30
2019-05-11T08:00:39.802Z,25.00
2019-05-11T08:03:08.948Z,25.23
2019-05-11T08:05:38.377Z,28.70
2019-05-11T08:08:05.198Z,24.03
2019-05-11T08:10:32.440Z,25.27
2019-05-11T08:12:59.807Z,24.53
2019-05-11T08:15:28.409Z,23.23
2019-05-11T08:17:57.876Z,27.90
2019-05-11T08:20:28.070Z,27.10
2019-05-11T08:22:55.214Z,26.50
2019-05-11T08:25:22.571Z,23.67
2019-05-11T08:27:50.030Z,24.10
2019-05-11T08:30:18.796Z,24.77
2019-05-11T08:32:46.281Z,21.27
2019-05-11T08:35:13.909Z,21.63
2019-05-11T08:37:41.377Z,23.07
2019-05-11T08:40:09.382Z,18.80
2019-05-11T08:42:38.028Z,19.67
2019-05-11T08:45:19.545Z,19.07
2019-05-11T08:47:34.966Z,19.97
2019-05-11T08:50:02.276Z,21.60
2019-05-11T08:52:29.593Z,18.50
2019-05-11T08:54:57.758Z,21.57
2019-05-11T08:57:25.396Z,20.13
2019-05-11T08:59:52.678Z,19.90
2019-05-11T09:02:19.944Z,18.50
2019-05-11T09:04:48.355Z,21.50
2019-05-11T09:07:18.402Z,18.93
2019-05-11T09:09:48.214Z,19.40
2019-05-11T09:12:15.297Z,23.40
2019-05-11T09:14:42.626Z,23.90
2019-05-11T09:17:10.023Z,20.30
2019-05-11T09:19:38.761Z,23.27
2019-05-11T09:22:08.292Z,22.30
2019-05-11T09:24:35.706Z,22.67
2019-05-11T09:27:02.986Z,24.53
2019-05-11T09:29:30.350Z,23.10
2019-05-11T09:31:58.370Z,26.87
2019-05-11T09:34:26.078Z,24.77
2019-05-11T09:36:53.509Z,21.73
2019-05-11T09:39:20.969Z,17.97
2019-05-11T09:41:48.923Z,26.10
2019-05-11T09:44:18.202Z,20.87
2019-05-11T09:46:47.775Z,23.57
2019-05-11T09:49:15.072Z,20.97
2019-05-11T09:51:43.064Z,23.17
2019-05-11T09:54:29.474Z,24.80
2019-05-11T09:56:57.833Z,21.97
2019-05-11T09:59:27.991Z,20.40
2019-05-11T10:01:55.245Z,17.07
2019-05-11T10:04:22.592Z,20.27
2019-05-11T10:06:49.951Z,16.97
2019-05-11T10:09:18.614Z,17.60
2019-05-11T10:11:48.004Z,13.90
2019-05-11T10:14:15.481Z,15.23
2019-05-11T10:16:43.834Z,19.93
2019-05-11T10:19:11.879Z,20.00
2019-05-11T10:21:39.288Z,16.87
2019-05-11T10:24:08.709Z,20.47
2019-05-11T10:26:38.451Z,15.93
2019-05-11T10:29:07.929Z,12.80
2019-05-11T10:35:25.275Z,13.70
2019-05-11T10:37:52.713Z,11.97
2019-05-11T10:40:19.976Z,11.50
2019-05-11T10:42:48.364Z,9.90
2019-05-11T10:45:17.983Z,8.50
2019-05-11T10:47:45.306Z,9.40
2019-05-11T10:50:13.065Z,8.47
2019-05-11T10:52:40.454Z,8.90
2019-05-11T10:55:08.874Z,8.77
2019-05-11T10:57:38.573Z,6.50
2019-05-11T11:00:08.434Z,8.47
2019-05-11T11:02:38.376Z,8.13
2019-05-11T11:05:08.053Z,5.30
2019-05-11T11:07:38.134Z,10.27
2019-05-11T11:10:05.109Z,8.00
2019-05-11T11:12:32.406Z,8.30
2019-05-11T11:15:00.701Z,8.83
2019-05-11T11:17:28.763Z,7.03
2019-05-11T11:19:58.016Z,7.53
2019-05-11T11:22:39.052Z,7.43
2019-05-11T11:24:54.632Z,7.10
2019-05-11T11:27:21.927Z,7.53
2019-05-11T11:29:49.215Z,7.10
2019-05-11T11:32:18.409Z,7.83
2019-05-11T11:34:45.976Z,7.83
2019-05-11T11:37:13.335Z,8.30
2019-05-11T11:39:40.835Z,7.73
2019-05-11T11:42:08.487Z,7.67
2019-05-11T11:44:37.962Z,9.77
2019-05-11T11:47:05.269Z,9.43
2019-05-11T11:49:33.682Z,7.73
2019-05-11T11:52:01.083Z,8.33
2019-05-11T11:54:28.852Z,8.20
2019-05-11T11:56:58.740Z,6.90
2019-05-11T11:59:25.451Z,10.07
2019-05-11T12:01:52.834Z,5.63
2019-05-11T12:04:20.161Z,9.07
2019-05-11T12:06:49.098Z,7.43
2019-05-11T12:09:18.210Z,9.20
2019-05-11T12:11:45.623Z,8.13
2019-05-11T12:14:13.878Z,8.73
2019-05-11T12:16:41.184Z,8.50
2019-05-11T12:19:08.938Z,10.13
2019-05-11T12:21:37.926Z,6.90
2019-05-11T12:24:07.884Z,7.57
2019-05-11T12:26:34.616Z,11.00
2019-05-11T12:29:01.899Z,7.23
2019-05-11T12:31:32.525Z,8.77
2019-05-11T12:33:58.664Z,11.23
2019-05-11T12:36:27.949Z,7.20
2019-05-11T12:38:55.218Z,9.60
2019-05-11T12:41:22.582Z,11.07
2019-05-11T12:43:49.911Z,8.87
2019-05-11T12:46:18.920Z,7.00
2019-05-11T12:48:48.471Z,9.30
2019-05-11T12:51:15.571Z,6.43
2019-05-11T12:53:42.934Z,7.80
2019-05-11T12:56:10.229Z,9.63
2019-05-11T12:58:39.602Z,6.83
2019-05-11T13:01:09.273Z,8.77
2019-05-11T13:03:38.558Z,7.17
2019-05-11T13:06:08.138Z,11.10
2019-05-11T13:08:41.476Z,8.40
2019-05-11T13:11:09.037Z,13.30
2019-05-11T13:13:37.833Z,6.40
2019-05-11T13:16:05.372Z,10.93
2019-05-11T13:18:32.751Z,10.27
2019-05-11T13:21:00.083Z,9.00
2019-05-11T13:23:27.919Z,7.73
2019-05-11T13:25:55.396Z,10.83
2019-05-11T13:28:22.835Z,9.90
2019-05-11T13:30:50.087Z,9.97
2019-05-11T13:33:19.081Z,13.60
2019-05-11T13:35:48.223Z,8.17
2019-05-11T13:38:17.767Z,11.97
2019-05-11T13:40:44.850Z,9.70
2019-05-11T13:43:12.156Z,13.90
2019-05-11T13:45:40.478Z,8.67
2019-05-11T13:48:08.449Z,7.50
2019-05-11T13:50:36.043Z,13.90
2019-05-11T13:53:03.422Z,8.63
2019-05-11T13:55:31.271Z,8.57
2019-05-11T13:57:59.972Z,9.63
2019-05-11T14:00:28.932Z,7.70
2019-05-11T14:02:58.638Z,11.00
2019-05-11T14:05:28.541Z,8.73
2019-05-11T14:07:55.916Z,8.27
2019-05-11T14:10:23.204Z,8.90
2019-05-11T14:12:50.555Z,10.30
2019-05-11T14:15:18.873Z,7.90
2019-05-11T14:17:48.154Z,8.73
2019-05-11T14:20:18.943Z,8.60
2019-05-11T14:22:47.918Z,9.50
2019-05-11T14:25:15.471Z,9.43
2019-05-11T14:27:42.899Z,12.40
2019-05-11T14:30:10.533Z,6.30
2019-05-11T14:32:38.847Z,8.47
2019-05-11T14:35:11.337Z,9.57
2019-05-11T14:37:37.808Z,8.27
2019-05-11T14:40:05.047Z,8.30
2019-05-11T14:42:32.564Z,12.50
2019-05-11T14:44:59.875Z,12.20
2019-05-11T14:47:28.388Z,12.53
2019-05-11T14:49:57.810Z,10.53
2019-05-11T14:52:25.112Z,8.53
2019-05-11T14:54:52.349Z,11.17
2019-05-11T14:57:19.648Z,8.00
2019-05-11T14:59:48.301Z,9.00
2019-05-11T15:02:33.970Z,10.60
2019-05-11T15:05:01.691Z,9.27
2019-05-11T15:07:29.117Z,8.97
2019-05-11T15:09:58.553Z,9.97
2019-05-11T15:12:25.609Z,11.43
2019-05-11T15:14:52.962Z,10.67
2019-05-11T15:17:20.273Z,11.90
2019-05-11T15:19:48.818Z,9.87
2019-05-11T15:22:18.163Z,10.63
2019-05-11T15:24:45.525Z,7.83
2019-05-11T15:27:12.876Z,8.87
2019-05-11T15:29:40.125Z,10.03
2019-05-11T15:32:08.456Z,12.60
2019-05-11T15:34:37.868Z,7.40
2019-05-11T15:37:05.296Z,12.23
2019-05-11T15:39:32.738Z,9.27
2019-05-11T15:42:09.200Z,14.20
2019-05-11T15:44:29.389Z,8.07
2019-05-11T15:46:58.292Z,13.23
2019-05-11T15:49:25.652Z,11.90
2019-05-11T15:51:55.035Z,10.47
2019-05-11T15:54:22.299Z,9.23
2019-05-11T15:56:49.567Z,7.10
2019-05-11T15:59:16.902Z,6.90
2019-05-11T16:01:44.441Z,12.00
2019-05-11T16:04:12.029Z,8.83
2019-05-11T16:06:39.361Z,6.60
2019-05-11T16:09:08.363Z,11.67
2019-05-11T16:11:38.840Z,6.70
2019-05-11T16:14:08.681Z,9.37
2019-05-11T16:16:35.610Z,8.50
2019-05-11T16:19:11.706Z,8.20
2019-05-11T16:21:32.145Z,9.27
2019-05-11T16:23:59.542Z,5.37
2019-05-11T16:26:28.109Z,6.43
2019-05-11T16:28:55.527Z,6.83
2019-05-11T16:31:23.279Z,9.23
2019-05-11T16:33:50.755Z,8.23
2019-05-11T16:36:18.375Z,8.93
2019-05-11T16:38:45.709Z,6.57
2019-05-11T16:41:13.140Z,7.67
2019-05-11T16:43:40.644Z,6.27
2019-05-11T16:46:08.715Z,6.57
2019-05-11T16:48:38.215Z,5.27
2019-05-11T16:51:05.604Z,7.60
2019-05-11T16:53:35.254Z,6.00
2019-05-11T16:56:02.413Z,8.50
2019-05-11T16:58:30.041Z,5.37
2019-05-11T17:00:58.264Z,5.57
2019-05-11T17:03:27.938Z,5.57
2019-05-11T17:05:55.444Z,7.93
2019-05-11T17:08:23.050Z,6.60
2019-05-11T17:10:59.130Z,5.57
2019-05-11T17:13:26.390Z,6.07
2019-05-11T17:15:54.733Z,5.07
2019-05-11T17:18:22.038Z,4.90
2019-05-11T17:20:49.391Z,5.37
2019-05-11T17:23:18.296Z,6.17
2019-05-11T17:25:45.786Z,7.70
2019-05-11T17:28:13.078Z,9.17
2019-05-11T17:30:40.432Z,5.17
2019-05-11T17:33:08.725Z,6.83
2019-05-11T17:35:37.360Z,5.57
2019-05-11T17:38:04.590Z,7.70
2019-05-11T17:40:31.886Z,6.53
2019-05-11T17:42:59.265Z,6.33
2019-05-11T17:45:26.630Z,8.63
2019-05-11T17:47:54.027Z,4.67
2019-05-11T17:50:21.363Z,4.53
2019-05-11T17:52:48.657Z,5.90
2019-05-11T17:55:18.128Z,5.97
2019-05-11T17:57:45.187Z,7.17
2019-05-11T18:00:12.532Z,4.50
2019-05-11T18:02:39.917Z,6.17
2019-05-11T18:05:09.006Z,8.00
2019-05-11T18:07:38.611Z,9.63
2019-05-11T18:10:07.992Z,5.63
2019-05-11T18:12:36.069Z,7.77
2019-05-11T18:15:03.566Z,7.13
2019-05-11T18:17:30.948Z,8.03
2019-05-11T18:20:12.617Z,7.17
2019-05-11T18:22:28.468Z,7.13
2019-05-11T18:24:58.031Z,10.03
2019-05-11T18:27:25.161Z,7.07
2019-05-11T18:29:58.827Z,6.03
2019-05-11T18:32:28.383Z,6.90
2019-05-11T18:34:58.919Z,5.70
2019-05-11T18:37:28.189Z,6.37
2019-05-11T18:39:58.547Z,4.87
2019-05-11T18:42:28.306Z,10.80
2019-05-11T18:45:00.116Z,6.23
2019-05-11T18:47:29.959Z,14.63
2019-05-11T18:50:00.508Z,7.13
2019-05-11T18:52:29.613Z,7.03
2019-05-11T18:54:57.851Z,6.67
2019-05-11T18:57:27.771Z,5.23
2019-05-11T18:59:55.970Z,6.43
2019-05-11T19:02:27.951Z,6.17
2019-05-11T19:04:58.214Z,6.00
2019-05-11T19:07:28.670Z,8.33
2019-05-11T19:09:58.502Z,6.77
2019-05-11T19:12:28.147Z,9.00
2019-05-11T19:15:00.283Z,8.07
2019-05-11T19:17:29.353Z,7.17
2019-05-11T19:20:00.997Z,8.13
2019-05-11T19:22:30.334Z,5.63
2019-05-11T19:24:59.406Z,4.67
2019-05-11T19:27:28.886Z,8.67
2019-05-11T19:29:57.865Z,8.90
2019-05-11T19:32:28.737Z,7.30
2019-05-11T19:34:58.158Z,9.97
2019-05-11T19:37:27.874Z,12.03
2019-05-11T19:39:57.972Z,9.63
2019-05-11T19:42:28.520Z,6.93
2019-05-11T19:44:56.357Z,8.40
2019-05-11T19:47:23.629Z,6.67
2019-05-11T19:49:52.488Z,8.47
2019-05-11T19:52:22.379Z,7.60
2019-05-11T19:54:51.116Z,11.10
2019-05-11T19:57:20.703Z,7.83
2019-05-11T19:59:51.411Z,7.00
2019-05-11T20:02:20.800Z,6.20
2019-05-11T20:04:53.733Z,5.83
2019-05-11T20:07:23.188Z,9.13
2019-05-11T20:09:52.417Z,7.70
2019-05-11T20:12:21.548Z,7.47
2019-05-11T20:14:49.471Z,8.83
2019-05-11T20:17:18.208Z,6.83
2019-05-11T20:19:45.675Z,4.57
2019-05-11T20:22:12.990Z,9.90
2019-05-11T20:24:40.239Z,6.77
2019-05-11T20:27:08.055Z,6.53
2019-05-11T20:29:35.561Z,8.10
2019-05-11T20:32:02.829Z,9.10
2019-05-11T20:34:30.487Z,3.23
2019-05-11T20:36:58.720Z,9.77
2019-05-11T20:39:28.496Z,10.27
2019-05-11T20:41:55.499Z,10.50
2019-05-11T20:44:22.856Z,7.97
2019-05-11T20:46:50.334Z,10.50
2019-05-11T20:49:17.704Z,8.40
2019-05-11T20:51:45.079Z,9.00
2019-05-11T20:54:12.521Z,6.87
2019-05-11T20:56:39.907Z,13.43
2019-05-11T20:59:07.841Z,7.83
2019-05-11T21:01:35.360Z,8.83
2019-05-11T21:04:02.819Z,10.47
2019-05-11T21:08:11.578Z,6.20
2019-05-11T21:10:38.877Z,6.63
2019-05-11T21:13:08.419Z,5.13
2019-05-11T21:15:35.579Z,11.13
2019-05-11T21:18:02.872Z,12.33
2019-05-11T21:20:30.233Z,11.07
2019-05-11T21:22:57.971Z,10.07
2019-05-11T21:25:25.401Z,10.10
2019-05-11T21:27:53.657Z,10.80
2019-05-11T21:30:21.013Z,8.17
2019-05-11T21:32:48.380Z,10.07
2019-05-11T21:35:15.649Z,11.83
2019-05-11T21:37:42.965Z,8.07
2019-05-11T21:40:10.490Z,6.40
2019-05-11T21:42:39.012Z,15.07
2019-05-11T21:45:09.047Z,10.87
2019-05-11T21:47:38.674Z,14.30
2019-05-11T21:50:05.410Z,5.33
2019-05-11T21:52:32.696Z,9.87
2019-05-11T21:54:59.973Z,6.13
2019-05-11T21:57:27.848Z,8.53
2019-05-11T21:59:57.408Z,11.27
2019-05-11T22:02:24.523Z,13.33
2019-05-11T22:04:51.873Z,9.77
2019-05-11T22:07:19.200Z,8.10
2019-05-11T22:09:46.501Z,9.70
2019-05-11T22:12:13.840Z,7.43
2019-05-11T22:14:41.179Z,9.03
2019-05-11T22:17:08.491Z,8.87
2019-05-11T22:19:35.766Z,12.33
2019-05-11T22:22:03.050Z,7.87
2019-05-11T22:24:30.314Z,8.03
2019-05-11T22:27:00.226Z,8.80
2019-05-11T22:29:28.615Z,8.27
2019-05-11T22:31:57.701Z,5.73
2019-05-11T22:34:25.287Z,6.03
2019-05-11T22:36:52.732Z,9.97
2019-05-11T22:39:20.833Z,10.03
2019-05-11T22:41:48.426Z,7.50
2019-05-11T22:44:15.779Z,9.93
2019-05-11T22:46:43.831Z,8.70
2019-05-11T22:49:11.260Z,8.53
2019-05-11T22:51:38.773Z,15.47
2019-05-11T22:54:08.039Z,6.37
2019-05-11T22:56:37.865Z,13.07
2019-05-11T22:59:08.110Z,15.53
2019-05-11T23:01:37.909Z,12.53
2019-05-11T23:04:06.055Z,14.00
2019-05-11T23:06:33.614Z,16.83
2019-05-11T23:09:01.043Z,8.87
2019-05-11T23:11:28.666Z,12.13
2019-05-11T23:13:56.038Z,13.20
2019-05-11T23:16:23.417Z,9.63
2019-05-11T23:18:50.821Z,14.17
2019-05-11T23:21:19.320Z,10.80
2019-05-11T23:23:47.834Z,8.93
2019-05-11T23:26:17.656Z,9.80
2019-05-11T23:28:48.703Z,13.07
2019-05-11T23:31:17.535Z,16.87
2019-05-11T23:33:45.314Z,13.07
2019-05-11T23:36:12.709Z,8.67
2019-05-11T23:38:40.178Z,8.03
2019-05-11T23:41:08.290Z,12.83
2019-05-11T23:43:37.901Z,10.23
2019-05-11T23:46:08.275Z,12.27
2019-05-11T23:48:38.364Z,7.90
2019-05-11T23:51:05.288Z,13.63
2019-05-11T23:53:32.650Z,9.43
2019-05-11T23:55:59.964Z,11.57
2019-05-11T23:58:28.137Z,7.60
